Time;durP1;ratioP1;P1;durP2;ratioP2;P2;SDS_P1;SDS_P2;PMS_P1;PMS_P2;Temp;Humidity;BMP_temperature;BMP_pressure;BME280_temperature;BME280_humidity;BME280_pressure;Samples;Min_cycle;Max_cycle;Signal;HPM_P1;HPM_P2
2020/05/18 00:01:04;;;;;;;5.349999;4.849999;;;;;;;7.49;61.66895;95779.4;;;;
2020/05/18 00:02:05;;;;;;;5.349999;4.849999;;;;;;;7.49;61.66895;95779.4;;;;
2020/05/18 00:03:06;;;;;;;5.349999;4.849999;;;;;;;7.49;61.66895;95779.4;;;;
2020/05/18 00:04:07;;;;;;;5.349999;4.849999;;;;;;;7.49;61.66895;95779.4;;;;
2020/05/18 00:05:07;;;;;;;5.349999;4.849999;;;;;;;7.49;61.66895;95779.4;;;;
2020/05/18 00:06:39;;;;;;;5.25;4.75;;;;;;;7.37;61.83398;95782.26;;;;
2020/05/18 00:07:51;;;;;;;5.25;4.75;;;;;;;7.37;61.83398;95782.26;;;;
2020/05/18 00:08:53;;;;;;;5.25;4.75;;;;;;;7.37;61.83398;95782.26;;;;
2020/05/18 00:10:09;;;;;;;5.25;4.75;;;;;;;7.37;61.83398;95782.26;;;;
2020/05/18 00:11:19;;;;;;;5.25;4.75;;;;;;;7.37;61.83398;95782.26;;;;
2020/05/18 00:12:20;;;;;;;5.25;4.75;;;;;;;7.37;61.83398;95782.26;;;;
2020/05/18 00:13:21;;;;;;;5.25;4.75;;;;;;;7.37;61.83398;95782.26;;;;
2020/05/18 00:14:22;;;;;;;5.25;4.75;;;;;;;7.37;61.83398;95782.26;;;;
2020/05/18 00:15:23;;;;;;;5.25;4.75;;;;;;;7.37;61.83398;95782.26;;;;
2020/05/18 00:16:24;;;;;;;6.65;4.85;;;;;;;7.19;62.20215;95780.8;;;;
2020/05/18 00:17:25;;;;;;;6.65;4.85;;;;;;;7.19;62.20215;95780.8;;;;
2020/05/18 00:18:25;;;;;;;6.65;4.85;;;;;;;7.19;62.20215;95780.8;;;;
2020/05/18 00:19:25;;;;;;;6.65;4.85;;;;;;;7.19;62.20215;95780.8;;;;
2020/05/18 00:20:26;;;;;;;6.65;4.85;;;;;;;7.19;62.20215;95780.8;;;;
2020/05/18 00:21:26;;;;;;;6.65;4.85;;;;;;;7.19;62.20215;95780.8;;;;
2020/05/18 00:22:27;;;;;;;6.65;4.85;;;;;;;7.19;62.20215;95780.8;;;;
2020/05/18 00:23:41;;;;;;;6.65;4.85;;;;;;;7.19;62.20215;95780.8;;;;
2020/05/18 00:24:47;;;;;;;6.65;4.85;;;;;;;7.19;62.20215;95780.8;;;;
2020/05/18 00:25:48;;;;;;;6.65;4.85;;;;;;;7.19;62.20215;95780.8;;;;
2020/05/18 00:26:50;;;;;;;6.65;4.85;;;;;;;7.19;62.20215;95780.8;;;;
2020/05/18 00:27:51;;;;;;;6.1;5;;;;;;;7.07;62.61133;95760.83;;;;
2020/05/18 00:28:51;;;;;;;6.1;5;;;;;;;7.07;62.61133;95760.83;;;;
2020/05/18 00:29:52;;;;;;;6.1;5;;;;;;;7.07;62.61133;95760.83;;;;
2020/05/18 00:30:52;;;;;;;6.1;5;;;;;;;7.07;62.61133;95760.83;;;;
2020/05/18 00:31:53;;;;;;;6.1;5;;;;;;;7.07;62.61133;95760.83;;;;
2020/05/18 00:32:54;;;;;;;6.1;5;;;;;;;7.07;62.61133;95760.83;;;;
2020/05/18 00:33:54;;;;;;;6.1;5;;;;;;;7.07;62.61133;95760.83;;;;
2020/05/18 00:34:55;;;;;;;6.1;5;;;;;;;7.07;62.61133;95760.83;;;;
2020/05/18 00:35:55;;;;;;;6.1;5;;;;;;;7.07;62.61133;95760.83;;;;
2020/05/18 00:36:56;;;;;;;6.1;5;;;;;;;7.07;62.61133;95760.83;;;;
2020/05/18 00:37:56;;;;;;;6;5.149999;;;;;;;6.9;62.87305;95773.47;;;;
2020/05/18 00:38:57;;;;;;;6;5.149999;;;;;;;6.9;62.87305;95773.47;;;;
2020/05/18 00:39:57;;;;;;;6;5.149999;;;;;;;6.9;62.87305;95773.47;;;;
2020/05/18 00:40:57;;;;;;;6;5.149999;;;;;;;6.9;62.87305;95773.47;;;;
2020/05/18 00:41:58;;;;;;;6;5.149999;;;;;;;6.9;62.87305;95773.47;;;;
2020/05/18 00:42:58;;;;;;;6;5.149999;;;;;;;6.9;62.87305;95773.47;;;;
2020/05/18 00:43:59;;;;;;;6;5.149999;;;;;;;6.9;62.87305;95773.47;;;;
2020/05/18 00:45:00;;;;;;;6;5.149999;;;;;;;6.9;62.87305;95773.47;;;;
2020/05/18 00:46:00;;;;;;;6;5.149999;;;;;;;6.9;62.87305;95773.47;;;;
2020/05/18 00:47:42;;;;;;;6;5.149999;;;;;;;6.9;62.87305;95773.47;;;;
2020/05/18 00:48:58;;;;;;;6.299999;4.849999;;;;;;;6.8;63.27441;95774.38;;;;
2020/05/18 00:51:07;;;;;;;6.299999;4.849999;;;;;;;6.8;63.27441;95774.38;;;;
2020/05/18 00:52:11;;;;;;;6.299999;4.849999;;;;;;;6.8;63.27441;95774.38;;;;
2020/05/18 00:53:16;;;;;;;6.299999;4.849999;;;;;;;6.8;63.27441;95774.38;;;;
2020/05/18 00:54:18;;;;;;;6.299999;4.849999;;;;;;;6.8;63.27441;95774.38;;;;
2020/05/18 00:55:18;;;;;;;6.299999;4.849999;;;;;;;6.8;63.27441;95774.38;;;;
2020/05/18 00:56:21;;;;;;;6.299999;4.849999;;;;;;;6.8;63.27441;95774.38;;;;
2020/05/18 00:57:21;;;;;;;6.299999;4.849999;;;;;;;6.8;63.27441;95774.38;;;;
2020/05/18 00:58:22;;;;;;;6.299999;4.849999;;;;;;;6.8;63.27441;95774.38;;;;
2020/05/18 00:59:22;;;;;;;6.199999;4.7;;;;;;;6.61;63.51367;95766.97;;;;
2020/05/18 01:00:23;;;;;;;6.199999;4.7;;;;;;;6.61;63.51367;95766.97;;;;
2020/05/18 01:01:24;;;;;;;6.199999;4.7;;;;;;;6.61;63.51367;95766.97;;;;
2020/05/18 01:02:25;;;;;;;6.199999;4.7;;;;;;;6.61;63.51367;95766.97;;;;
2020/05/18 01:03:26;;;;;;;6.199999;4.7;;;;;;;6.61;63.51367;95766.97;;;;
2020/05/18 01:04:27;;;;;;;6.199999;4.7;;;;;;;6.61;63.51367;95766.97;;;;
2020/05/18 01:05:28;;;;;;;6.199999;4.7;;;;;;;6.61;63.51367;95766.97;;;;
2020/05/18 01:06:28;;;;;;;6.199999;4.7;;;;;;;6.61;63.51367;95766.97;;;;
2020/05/18 01:07:29;;;;;;;6.199999;4.7;;;;;;;6.61;63.51367;95766.97;;;;
2020/05/18 01:08:29;;;;;;;6.199999;4.7;;;;;;;6.61;63.51367;95766.97;;;;
2020/05/18 01:09:29;;;;;;;5.8;4.450001;;;;;;;6.56;63.62109;95765.91;;;;
2020/05/18 01:10:30;;;;;;;5.8;4.450001;;;;;;;6.56;63.62109;95765.91;;;;
2020/05/18 01:11:32;;;;;;;5.8;4.450001;;;;;;;6.56;63.62109;95765.91;;;;
2020/05/18 01:12:32;;;;;;;5.8;4.450001;;;;;;;6.56;63.62109;95765.91;;;;
2020/05/18 01:13:34;;;;;;;5.8;4.450001;;;;;;;6.56;63.62109;95765.91;;;;
2020/05/18 01:14:34;;;;;;;5.8;4.450001;;;;;;;6.56;63.62109;95765.91;;;;
2020/05/18 01:15:35;;;;;;;5.8;4.450001;;;;;;;6.56;63.62109;95765.91;;;;
2020/05/18 01:16:36;;;;;;;5.8;4.450001;;;;;;;6.56;63.62109;95765.91;;;;
2020/05/18 01:17:37;;;;;;;5.8;4.450001;;;;;;;6.56;63.62109;95765.91;;;;
2020/05/18 01:18:37;;;;;;;5.8;4.450001;;;;;;;6.56;63.62109;95765.91;;;;
2020/05/18 01:24:50;;;;;;;5.3;4.8;;;;;;;6.4;63.89648;95755.02;;;;
2020/05/18 01:25:51;;;;;;;5.3;4.8;;;;;;;6.4;63.89648;95755.02;;;;
2020/05/18 01:26:51;;;;;;;5.3;4.8;;;;;;;6.4;63.89648;95755.02;;;;
2020/05/18 01:28:14;;;;;;;5.3;4.8;;;;;;;6.4;63.89648;95755.02;;;;
2020/05/18 01:29:17;;;;;;;5.3;4.8;;;;;;;6.4;63.89648;95755.02;;;;
2020/05/18 01:30:20;;;;;;;5.3;4.8;;;;;;;6.4;63.89648;95755.02;;;;
2020/05/18 01:31:28;;;;;;;5.649999;4.65;;;;;;;6.34;64.24805;95750.94;;;;
2020/05/18 01:32:29;;;;;;;5.649999;4.65;;;;;;;6.34;64.24805;95750.94;;;;
2020/05/18 01:33:30;;;;;;;5.649999;4.65;;;;;;;6.34;64.24805;95750.94;;;;
2020/05/18 01:34:31;;;;;;;5.649999;4.65;;;;;;;6.34;64.24805;95750.94;;;;
2020/05/18 01:35:31;;;;;;;5.649999;4.65;;;;;;;6.34;64.24805;95750.94;;;;
2020/05/18 01:36:31;;;;;;;5.649999;4.65;;;;;;;6.34;64.24805;95750.94;;;;
2020/05/18 01:37:35;;;;;;;5.649999;4.65;;;;;;;6.34;64.24805;95750.94;;;;
2020/05/18 01:38:45;;;;;;;5.649999;4.65;;;;;;;6.34;64.24805;95750.94;;;;
2020/05/18 01:39:52;;;;;;;5.649999;4.65;;;;;;;6.34;64.24805;95750.94;;;;
2020/05/18 01:41:06;;;;;;;5.649999;4.65;;;;;;;6.34;64.24805;95750.94;;;;
2020/05/18 01:42:15;;;;;;;5.35;4.85;;;;;;;6.23;64.31836;95755;;;;
2020/05/18 01:43:24;;;;;;;5.35;4.85;;;;;;;6.23;64.31836;95755;;;;
2020/05/18 01:44:34;;;;;;;5.35;4.85;;;;;;;6.23;64.31836;95755;;;;
2020/05/18 01:45:49;;;;;;;5.35;4.85;;;;;;;6.23;64.31836;95755;;;;
2020/05/18 01:47:07;;;;;;;5.35;4.85;;;;;;;6.23;64.31836;95755;;;;
2020/05/18 01:49:03;;;;;;;5.35;4.85;;;;;;;6.23;64.31836;95755;;;;
2020/05/18 02:00:41;;;;;;;5.9;5.299999;;;;;;;6.15;64.47363;95754.35;;;;
2020/05/18 02:06:58;;;;;;;5.849999;4.95;;;;;;;5.98;64.76855;95757.42;;;;
2020/05/18 02:08:35;;;;;;;5.849999;4.95;;;;;;;5.98;64.76855;95757.42;;;;
2020/05/18 02:09:45;;;;;;;5.849999;4.95;;;;;;;5.98;64.76855;95757.42;;;;
2020/05/18 02:10:54;;;;;;;5.849999;4.95;;;;;;;5.98;64.76855;95757.42;;;;
2020/05/18 02:12:07;;;;;;;5.849999;4.95;;;;;;;5.98;64.76855;95757.42;;;;
2020/05/18 02:13:40;;;;;;;5.55;4.85;;;;;;;5.91;64.91602;95758.81;;;;
2020/05/18 02:25:17;;;;;;;5.750001;5.1;;;;;;;5.78;65.05566;95755.49;;;;
2020/05/18 02:32:51;;;;;;;5.750001;5.1;;;;;;;5.78;65.05566;95755.49;;;;
2020/05/18 02:34:02;;;;;;;5.750001;5.1;;;;;;;5.78;65.05566;95755.49;;;;
2020/05/18 02:35:07;;;;;;;5.750001;5.15;;;;;;;5.72;65.23926;95749.98;;;;
2020/05/18 02:36:09;;;;;;;5.750001;5.15;;;;;;;5.72;65.23926;95749.98;;;;
2020/05/18 02:37:10;;;;;;;5.750001;5.15;;;;;;;5.72;65.23926;95749.98;;;;
2020/05/18 02:38:10;;;;;;;5.750001;5.15;;;;;;;5.72;65.23926;95749.98;;;;
2020/05/18 02:39:11;;;;;;;5.750001;5.15;;;;;;;5.72;65.23926;95749.98;;;;
2020/05/18 02:40:11;;;;;;;5.750001;5.15;;;;;;;5.72;65.23926;95749.98;;;;
2020/05/18 02:41:11;;;;;;;5.750001;5.15;;;;;;;5.72;65.23926;95749.98;;;;
2020/05/18 02:42:12;;;;;;;5.750001;5.15;;;;;;;5.72;65.23926;95749.98;;;;
2020/05/18 02:43:12;;;;;;;5.750001;5.15;;;;;;;5.72;65.23926;95749.98;;;;
2020/05/18 02:44:13;;;;;;;5.750001;5.15;;;;;;;5.72;65.23926;95749.98;;;;
2020/05/18 02:45:13;;;;;;;5.8;5.15;;;;;;;5.59;65.59082;95745.89;;;;
2020/05/18 02:46:17;;;;;;;5.8;5.15;;;;;;;5.59;65.59082;95745.89;;;;
2020/05/18 02:57:49;;;;;;;5.749999;5.249999;;;;;;;5.56;65.61816;95734.62;;;;
2020/05/18 02:59:28;;;;;;;5.749999;5.249999;;;;;;;5.56;65.61816;95734.62;;;;
2020/05/18 03:00:31;;;;;;;5.749999;5.249999;;;;;;;5.56;65.61816;95734.62;;;;
2020/05/18 03:02:11;;;;;;;5.749999;5.249999;;;;;;;5.56;65.61816;95734.62;;;;
2020/05/18 03:03:54;;;;;;;5.749999;5.249999;;;;;;;5.56;65.61816;95734.62;;;;
2020/05/18 03:05:05;;;;;;;5.749999;5.249999;;;;;;;5.56;65.61816;95734.62;;;;
2020/05/18 03:06:11;;;;;;;5.749999;5.249999;;;;;;;5.56;65.61816;95734.62;;;;
2020/05/18 03:07:25;;;;;;;6.2;5.6;;;;;;;5.46;65.85742;95740.41;;;;
2020/05/18 03:09:05;;;;;;;6.2;5.6;;;;;;;5.46;65.85742;95740.41;;;;
2020/05/18 03:21:36;;;;;;;6.7;5.8;;;;;;;5.43;66.06445;95733.17;;;;
2020/05/18 03:22:53;;;;;;;6.7;5.8;;;;;;;5.43;66.06445;95733.17;;;;
2020/05/18 03:24:02;;;;;;;6.7;5.8;;;;;;;5.43;66.06445;95733.17;;;;
2020/05/18 03:25:24;;;;;;;6.7;5.8;;;;;;;5.43;66.06445;95733.17;;;;
2020/05/18 03:31:46;;;;;;;7.05;5.95;;;;;;;5.31;66.39551;95734.72;;;;
2020/05/18 03:33:00;;;;;;;7.05;5.95;;;;;;;5.31;66.39551;95734.72;;;;
2020/05/18 03:34:08;;;;;;;7.05;5.95;;;;;;;5.31;66.39551;95734.72;;;;
2020/05/18 03:35:26;;;;;;;7.05;5.95;;;;;;;5.31;66.39551;95734.72;;;;
2020/05/18 03:36:47;;;;;;;7.05;5.95;;;;;;;5.31;66.39551;95734.72;;;;
2020/05/18 03:38:32;;;;;;;7.05;5.95;;;;;;;5.31;66.39551;95734.72;;;;
2020/05/18 04:06:38;;;;;;;6.349999;5.75;;;;;;;5.28;66.78125;95742.3;;;;
2020/05/18 04:08:04;;;;;;;6.349999;5.75;;;;;;;5.28;66.78125;95742.3;;;;
2020/05/18 04:09:09;;;;;;;6.349999;5.75;;;;;;;5.28;66.78125;95742.3;;;;
2020/05/18 04:10:14;;;;;;;6.599999;5.75;;;;;;;5.34;67.00391;95760.28;;;;
2020/05/18 04:11:15;;;;;;;6.599999;5.75;;;;;;;5.34;67.00391;95760.28;;;;
2020/05/18 04:12:16;;;;;;;6.599999;5.75;;;;;;;5.34;67.00391;95760.28;;;;
2020/05/18 04:13:16;;;;;;;6.599999;5.75;;;;;;;5.34;67.00391;95760.28;;;;
2020/05/18 04:14:17;;;;;;;6.599999;5.75;;;;;;;5.34;67.00391;95760.28;;;;
2020/05/18 04:20:55;;;;;;;6.599999;5.75;;;;;;;5.34;67.00391;95760.28;;;;
2020/05/18 04:23:20;;;;;;;6.950001;5.55;;;;;;;5.51;67.2002;95763;;;;
2020/05/18 04:25:08;;;;;;;6.950001;5.55;;;;;;;5.51;67.2002;95763;;;;
2020/05/18 04:27:49;;;;;;;6.950001;5.55;;;;;;;5.51;67.2002;95763;;;;
2020/05/18 04:34:26;;;;;;;7.100001;5.7;;;;;;;5.63;67.36719;95768.17;;;;
2020/05/18 04:35:37;;;;;;;7.100001;5.7;;;;;;;5.63;67.36719;95768.17;;;;
2020/05/18 04:36:38;;;;;;;7.100001;5.7;;;;;;;5.63;67.36719;95768.17;;;;
2020/05/18 04:37:40;;;;;;;7.100001;5.7;;;;;;;5.63;67.36719;95768.17;;;;
2020/05/18 04:38:41;;;;;;;7.100001;5.7;;;;;;;5.63;67.36719;95768.17;;;;
2020/05/18 04:39:41;;;;;;;7.100001;5.7;;;;;;;5.63;67.36719;95768.17;;;;
2020/05/18 04:40:42;;;;;;;7.100001;5.7;;;;;;;5.63;67.36719;95768.17;;;;
2020/05/18 04:41:42;;;;;;;7.100001;5.7;;;;;;;5.63;67.36719;95768.17;;;;
2020/05/18 04:42:42;;;;;;;6.500001;5.85;;;;;;;5.92;67.65527;95766.24;;;;
2020/05/18 04:43:43;;;;;;;6.500001;5.85;;;;;;;5.92;67.65527;95766.24;;;;
2020/05/18 04:44:43;;;;;;;6.500001;5.85;;;;;;;5.92;67.65527;95766.24;;;;
2020/05/18 04:45:44;;;;;;;6.500001;5.85;;;;;;;5.92;67.65527;95766.24;;;;
2020/05/18 04:46:44;;;;;;;6.500001;5.85;;;;;;;5.92;67.65527;95766.24;;;;
2020/05/18 04:47:53;;;;;;;6.500001;5.85;;;;;;;5.92;67.65527;95766.24;;;;
2020/05/18 04:49:02;;;;;;;6.500001;5.85;;;;;;;5.92;67.65527;95766.24;;;;
2020/05/18 04:50:13;;;;;;;6.500001;5.85;;;;;;;5.92;67.65527;95766.24;;;;
2020/05/18 04:51:18;;;;;;;6.500001;5.85;;;;;;;5.92;67.65527;95766.24;;;;
2020/05/18 04:52:20;;;;;;;6.500001;5.85;;;;;;;5.92;67.65527;95766.24;;;;
2020/05/18 04:53:32;;;;;;;6.900001;6.249999;;;;;;;6.22;67.86133;95780.68;;;;
2020/05/18 04:54:42;;;;;;;6.900001;6.249999;;;;;;;6.22;67.86133;95780.68;;;;
2020/05/18 04:56:30;;;;;;;6.900001;6.249999;;;;;;;6.22;67.86133;95780.68;;;;
2020/05/18 04:58:00;;;;;;;6.900001;6.249999;;;;;;;6.22;67.86133;95780.68;;;;
2020/05/18 04:59:10;;;;;;;6.900001;6.249999;;;;;;;6.22;67.86133;95780.68;;;;
2020/05/18 05:01:36;;;;;;;6.900001;6.249999;;;;;;;6.22;67.86133;95780.68;;;;
2020/05/18 05:18:41;;;;;;;7.65;6.950001;;;;;;;7.29;67.94727;95790.53;;;;
2020/05/18 05:34:32;;;;;;;7.7;6.849999;;;;;;;7.98;67.75488;95796.39;;;;
2020/05/18 05:35:40;;;;;;;7.900001;7.1;;;;;;;8.63;67.4707;95805.44;;;;
2020/05/18 05:36:45;;;;;;;7.900001;7.1;;;;;;;8.63;67.4707;95805.44;;;;
2020/05/18 05:37:46;;;;;;;7.900001;7.1;;;;;;;8.63;67.4707;95805.44;;;;
2020/05/18 05:38:46;;;;;;;7.900001;7.1;;;;;;;8.63;67.4707;95805.44;;;;
2020/05/18 05:39:47;;;;;;;7.900001;7.1;;;;;;;8.63;67.4707;95805.44;;;;
2020/05/18 05:40:47;;;;;;;7.900001;7.1;;;;;;;8.63;67.4707;95805.44;;;;
2020/05/18 05:41:48;;;;;;;7.900001;7.1;;;;;;;8.63;67.4707;95805.44;;;;
2020/05/18 05:42:48;;;;;;;7.900001;7.1;;;;;;;8.63;67.4707;95805.44;;;;
2020/05/18 05:43:49;;;;;;;7.900001;7.1;;;;;;;8.63;67.4707;95805.44;;;;
2020/05/18 05:44:49;;;;;;;7.900001;7.1;;;;;;;8.63;67.4707;95805.44;;;;
2020/05/18 05:45:49;;;;;;;9;6.849999;;;;;;;9.34;67.18652;95821.83;;;;
2020/05/18 05:46:51;;;;;;;9;6.849999;;;;;;;9.34;67.18652;95821.83;;;;
2020/05/18 05:47:52;;;;;;;9;6.849999;;;;;;;9.34;67.18652;95821.83;;;;
2020/05/18 05:48:52;;;;;;;9;6.849999;;;;;;;9.34;67.18652;95821.83;;;;
2020/05/18 05:49:59;;;;;;;9;6.849999;;;;;;;9.34;67.18652;95821.83;;;;
2020/05/18 05:51:10;;;;;;;9;6.849999;;;;;;;9.34;67.18652;95821.83;;;;
2020/05/18 05:57:33;;;;;;;7.900001;7.1;;;;;;;10;66.87012;95822.67;;;;
2020/05/18 05:59:42;;;;;;;7.900001;7.1;;;;;;;10;66.87012;95822.67;;;;
2020/05/18 06:00:44;;;;;;;7.900001;7.1;;;;;;;10;66.87012;95822.67;;;;
2020/05/18 06:01:50;;;;;;;7.900001;7.1;;;;;;;10;66.87012;95822.67;;;;
2020/05/18 06:02:52;;;;;;;7.900001;7.1;;;;;;;10;66.87012;95822.67;;;;
2020/05/18 06:03:53;;;;;;;7.900001;7.1;;;;;;;10;66.87012;95822.67;;;;
2020/05/18 06:04:54;;;;;;;7.900001;7.1;;;;;;;10;66.87012;95822.67;;;;
2020/05/18 06:05:54;;;;;;;7.900001;7.1;;;;;;;10;66.87012;95822.67;;;;
2020/05/18 06:06:55;;;;;;;7.95;7.100001;;;;;;;10.83;66.33203;95816.86;;;;
2020/05/18 06:07:55;;;;;;;7.95;7.100001;;;;;;;10.83;66.33203;95816.86;;;;
2020/05/18 06:08:55;;;;;;;7.95;7.100001;;;;;;;10.83;66.33203;95816.86;;;;
2020/05/18 06:09:56;;;;;;;7.95;7.100001;;;;;;;10.83;66.33203;95816.86;;;;
2020/05/18 06:10:56;;;;;;;7.95;7.100001;;;;;;;10.83;66.33203;95816.86;;;;
2020/05/18 06:12:02;;;;;;;7.95;7.100001;;;;;;;10.83;66.33203;95816.86;;;;
2020/05/18 06:13:04;;;;;;;7.95;7.100001;;;;;;;10.83;66.33203;95816.86;;;;
2020/05/18 06:14:05;;;;;;;7.95;7.100001;;;;;;;10.83;66.33203;95816.86;;;;
2020/05/18 06:15:07;;;;;;;7.95;7.100001;;;;;;;10.83;66.33203;95816.86;;;;
2020/05/18 06:16:08;;;;;;;7.95;7.100001;;;;;;;10.83;66.33203;95816.86;;;;
2020/05/18 06:17:08;;;;;;;7.95;7.100001;;;;;;;10.83;66.33203;95816.86;;;;
2020/05/18 06:18:08;;;;;;;7.100001;6.4;;;;;;;11.63;65.49707;95821.04;;;;
2020/05/18 06:19:09;;;;;;;7.100001;6.4;;;;;;;11.63;65.49707;95821.04;;;;
2020/05/18 06:20:09;;;;;;;7.100001;6.4;;;;;;;11.63;65.49707;95821.04;;;;
2020/05/18 06:21:10;;;;;;;7.100001;6.4;;;;;;;11.63;65.49707;95821.04;;;;
2020/05/18 06:22:10;;;;;;;7.100001;6.4;;;;;;;11.63;65.49707;95821.04;;;;
2020/05/18 06:23:12;;;;;;;7.100001;6.4;;;;;;;11.63;65.49707;95821.04;;;;
2020/05/18 06:24:12;;;;;;;7.100001;6.4;;;;;;;11.63;65.49707;95821.04;;;;
2020/05/18 06:25:12;;;;;;;7.100001;6.4;;;;;;;11.63;65.49707;95821.04;;;;
2020/05/18 06:26:13;;;;;;;7.100001;6.4;;;;;;;11.63;65.49707;95821.04;;;;
2020/05/18 06:27:13;;;;;;;7.100001;6.4;;;;;;;11.63;65.49707;95821.04;;;;
2020/05/18 06:28:14;;;;;;;7.199999;6.5;;;;;;;12.6;64.58594;95816.83;;;;
2020/05/18 06:29:14;;;;;;;7.199999;6.5;;;;;;;12.6;64.58594;95816.83;;;;
2020/05/18 06:30:14;;;;;;;7.199999;6.5;;;;;;;12.6;64.58594;95816.83;;;;
2020/05/18 06:31:15;;;;;;;7.199999;6.5;;;;;;;12.6;64.58594;95816.83;;;;
2020/05/18 06:32:15;;;;;;;7.199999;6.5;;;;;;;12.6;64.58594;95816.83;;;;
2020/05/18 06:33:16;;;;;;;7.199999;6.5;;;;;;;12.6;64.58594;95816.83;;;;
2020/05/18 06:34:16;;;;;;;7.199999;6.5;;;;;;;12.6;64.58594;95816.83;;;;
2020/05/18 06:35:17;;;;;;;7.199999;6.5;;;;;;;12.6;64.58594;95816.83;;;;
2020/05/18 06:36:17;;;;;;;7.199999;6.5;;;;;;;12.6;64.58594;95816.83;;;;
2020/05/18 06:37:17;;;;;;;7.199999;6.5;;;;;;;12.6;64.58594;95816.83;;;;
2020/05/18 06:38:18;;;;;;;7.199999;6.5;;;;;;;12.6;64.58594;95816.83;;;;
2020/05/18 06:39:18;;;;;;;5.8;5.299999;;;;;;;14.68;61.82422;95820.7;;;;
2020/05/18 06:40:19;;;;;;;5.8;5.299999;;;;;;;14.68;61.82422;95820.7;;;;
2020/05/18 06:41:20;;;;;;;5.8;5.299999;;;;;;;14.68;61.82422;95820.7;;;;
2020/05/18 06:42:20;;;;;;;5.8;5.299999;;;;;;;14.68;61.82422;95820.7;;;;
2020/05/18 06:43:21;;;;;;;5.8;5.299999;;;;;;;14.68;61.82422;95820.7;;;;
2020/05/18 06:44:21;;;;;;;5.8;5.299999;;;;;;;14.68;61.82422;95820.7;;;;
2020/05/18 06:45:22;;;;;;;5.8;5.299999;;;;;;;14.68;61.82422;95820.7;;;;
2020/05/18 06:46:22;;;;;;;5.8;5.299999;;;;;;;14.68;61.82422;95820.7;;;;
2020/05/18 06:47:22;;;;;;;5.8;5.299999;;;;;;;14.68;61.82422;95820.7;;;;
2020/05/18 06:48:23;;;;;;;5.8;5.299999;;;;;;;14.68;61.82422;95820.7;;;;
2020/05/18 06:49:23;;;;;;;5.1;4.699999;;;;;;;17.18;57.96387;95821.08;;;;
2020/05/18 06:50:24;;;;;;;5.1;4.699999;;;;;;;17.18;57.96387;95821.08;;;;
2020/05/18 06:51:24;;;;;;;5.1;4.699999;;;;;;;17.18;57.96387;95821.08;;;;
2020/05/18 06:52:25;;;;;;;5.1;4.699999;;;;;;;17.18;57.96387;95821.08;;;;
2020/05/18 06:53:25;;;;;;;5.1;4.699999;;;;;;;17.18;57.96387;95821.08;;;;
2020/05/18 06:54:25;;;;;;;5.1;4.699999;;;;;;;17.18;57.96387;95821.08;;;;
2020/05/18 06:55:26;;;;;;;5.1;4.699999;;;;;;;17.18;57.96387;95821.08;;;;
2020/05/18 06:56:26;;;;;;;5.1;4.699999;;;;;;;17.18;57.96387;95821.08;;;;
2020/05/18 06:57:27;;;;;;;5.1;4.699999;;;;;;;17.18;57.96387;95821.08;;;;
2020/05/18 06:58:27;;;;;;;5.1;4.699999;;;;;;;17.18;57.96387;95821.08;;;;
2020/05/18 06:59:27;;;;;;;5.1;4.699999;;;;;;;17.18;57.96387;95821.08;;;;
2020/05/18 07:00:28;;;;;;;4.699999;4.15;;;;;;;19.12;55.125;95833.36;;;;
2020/05/18 07:01:28;;;;;;;4.699999;4.15;;;;;;;19.12;55.125;95833.36;;;;
2020/05/18 07:02:29;;;;;;;4.699999;4.15;;;;;;;19.12;55.125;95833.36;;;;
2020/05/18 07:03:29;;;;;;;4.699999;4.15;;;;;;;19.12;55.125;95833.36;;;;
2020/05/18 07:04:30;;;;;;;4.699999;4.15;;;;;;;19.12;55.125;95833.36;;;;
2020/05/18 07:05:30;;;;;;;4.699999;4.15;;;;;;;19.12;55.125;95833.36;;;;
2020/05/18 07:06:30;;;;;;;4.699999;4.15;;;;;;;19.12;55.125;95833.36;;;;
2020/05/18 07:07:31;;;;;;;4.699999;4.15;;;;;;;19.12;55.125;95833.36;;;;
2020/05/18 07:08:31;;;;;;;4.699999;4.15;;;;;;;19.12;55.125;95833.36;;;;
2020/05/18 07:09:32;;;;;;;4.699999;4.15;;;;;;;19.12;55.125;95833.36;;;;
2020/05/18 07:10:32;;;;;;;5.25;4.249999;;;;;;;20.69;52.81934;95853.03;;;;
2020/05/18 07:11:33;;;;;;;5.25;4.249999;;;;;;;20.69;52.81934;95853.03;;;;
2020/05/18 07:12:33;;;;;;;5.25;4.249999;;;;;;;20.69;52.81934;95853.03;;;;
2020/05/18 07:13:34;;;;;;;5.25;4.249999;;;;;;;20.69;52.81934;95853.03;;;;
2020/05/18 07:14:34;;;;;;;5.25;4.249999;;;;;;;20.69;52.81934;95853.03;;;;
2020/05/18 07:15:34;;;;;;;5.25;4.249999;;;;;;;20.69;52.81934;95853.03;;;;
2020/05/18 07:16:35;;;;;;;5.25;4.249999;;;;;;;20.69;52.81934;95853.03;;;;
2020/05/18 07:17:35;;;;;;;5.25;4.249999;;;;;;;20.69;52.81934;95853.03;;;;
2020/05/18 07:18:36;;;;;;;5.25;4.249999;;;;;;;20.69;52.81934;95853.03;;;;
2020/05/18 07:19:36;;;;;;;5.25;4.249999;;;;;;;20.69;52.81934;95853.03;;;;
2020/05/18 07:20:37;;;;;;;5.25;4.249999;;;;;;;20.69;52.81934;95853.03;;;;
2020/05/18 07:21:37;;;;;;;4.6;4.199999;;;;;;;21.71;50.37598;95842.68;;;;
2020/05/18 07:22:37;;;;;;;4.6;4.199999;;;;;;;21.71;50.37598;95842.68;;;;
2020/05/18 07:23:38;;;;;;;4.6;4.199999;;;;;;;21.71;50.37598;95842.68;;;;
2020/05/18 07:24:38;;;;;;;4.6;4.199999;;;;;;;21.71;50.37598;95842.68;;;;
2020/05/18 07:25:39;;;;;;;4.6;4.199999;;;;;;;21.71;50.37598;95842.68;;;;
2020/05/18 07:26:39;;;;;;;4.6;4.199999;;;;;;;21.71;50.37598;95842.68;;;;
2020/05/18 07:27:40;;;;;;;4.6;4.199999;;;;;;;21.71;50.37598;95842.68;;;;
2020/05/18 07:28:40;;;;;;;4.6;4.199999;;;;;;;21.71;50.37598;95842.68;;;;
2020/05/18 07:29:40;;;;;;;4.6;4.199999;;;;;;;21.71;50.37598;95842.68;;;;
2020/05/18 07:30:41;;;;;;;4.6;4.199999;;;;;;;21.71;50.37598;95842.68;;;;
2020/05/18 07:31:41;;;;;;;4.6;4.199999;;;;;;;21.71;50.37598;95842.68;;;;
2020/05/18 07:32:43;;;;;;;4.6;4.199999;;;;;;;21.71;50.37598;95842.68;;;;
2020/05/18 07:33:51;;;;;;;4.6;4.199999;;;;;;;21.71;50.37598;95842.68;;;;
2020/05/18 07:34:58;;;;;;;4.6;4.199999;;;;;;;21.71;50.37598;95842.68;;;;
2020/05/18 07:36:13;;;;;;;4.6;4.199999;;;;;;;21.71;50.37598;95842.68;;;;
2020/05/18 07:37:18;;;;;;;4.6;4.199999;;;;;;;21.71;50.37598;95842.68;;;;
2020/05/18 07:38:20;;;;;;;4.6;4.199999;;;;;;;21.71;50.37598;95842.68;;;;
2020/05/18 07:39:21;;;;;;;4.6;4.199999;;;;;;;21.71;50.37598;95842.68;;;;
2020/05/18 07:40:23;;;;;;;4.6;4.199999;;;;;;;21.71;50.37598;95842.68;;;;
2020/05/18 07:41:23;;;;;;;4.6;4.199999;;;;;;;21.71;50.37598;95842.68;;;;
2020/05/18 07:42:24;;;;;;;4.6;4.199999;;;;;;;21.71;50.37598;95842.68;;;;
2020/05/18 07:43:24;;;;;;;4.649999;3.8;;;;;;;23.24;47.04297;95856.64;;;;
2020/05/18 07:44:25;;;;;;;4.649999;3.8;;;;;;;23.24;47.04297;95856.64;;;;
2020/05/18 07:45:25;;;;;;;4.649999;3.8;;;;;;;23.24;47.04297;95856.64;;;;
2020/05/18 07:46:26;;;;;;;4.649999;3.8;;;;;;;23.24;47.04297;95856.64;;;;
2020/05/18 07:47:26;;;;;;;4.649999;3.8;;;;;;;23.24;47.04297;95856.64;;;;
2020/05/18 07:48:27;;;;;;;4.649999;3.8;;;;;;;23.24;47.04297;95856.64;;;;
2020/05/18 07:49:27;;;;;;;4.649999;3.8;;;;;;;23.24;47.04297;95856.64;;;;
2020/05/18 07:50:28;;;;;;;4.649999;3.8;;;;;;;23.24;47.04297;95856.64;;;;
2020/05/18 07:51:28;;;;;;;4.649999;3.8;;;;;;;23.24;47.04297;95856.64;;;;
2020/05/18 07:52:38;;;;;;;4.649999;3.8;;;;;;;23.24;47.04297;95856.64;;;;
2020/05/18 07:53:39;;;;;;;5.2;4.6;;;;;;;23.43;45.95117;95857.05;;;;
2020/05/18 07:54:39;;;;;;;5.2;4.6;;;;;;;23.43;45.95117;95857.05;;;;
2020/05/18 07:55:40;;;;;;;5.2;4.6;;;;;;;23.43;45.95117;95857.05;;;;
2020/05/18 07:56:40;;;;;;;5.2;4.6;;;;;;;23.43;45.95117;95857.05;;;;
2020/05/18 07:57:41;;;;;;;5.2;4.6;;;;;;;23.43;45.95117;95857.05;;;;
2020/05/18 07:58:41;;;;;;;5.2;4.6;;;;;;;23.43;45.95117;95857.05;;;;
2020/05/18 07:59:42;;;;;;;5.2;4.6;;;;;;;23.43;45.95117;95857.05;;;;
2020/05/18 08:00:42;;;;;;;5.2;4.6;;;;;;;23.43;45.95117;95857.05;;;;
2020/05/18 08:01:43;;;;;;;5.2;4.6;;;;;;;23.43;45.95117;95857.05;;;;
2020/05/18 08:02:43;;;;;;;5.2;4.6;;;;;;;23.43;45.95117;95857.05;;;;
2020/05/18 08:03:44;;;;;;;5.2;4.6;;;;;;;23.43;45.95117;95857.05;;;;
2020/05/18 08:04:44;;;;;;;8.849999;5.05;;;;;;;23.48;44.08887;95857.37;;;;
2020/05/18 08:05:44;;;;;;;8.849999;5.05;;;;;;;23.48;44.08887;95857.37;;;;
2020/05/18 08:06:45;;;;;;;8.849999;5.05;;;;;;;23.48;44.08887;95857.37;;;;
2020/05/18 08:07:45;;;;;;;8.849999;5.05;;;;;;;23.48;44.08887;95857.37;;;;
2020/05/18 08:08:46;;;;;;;8.849999;5.05;;;;;;;23.48;44.08887;95857.37;;;;
2020/05/18 08:09:46;;;;;;;8.849999;5.05;;;;;;;23.48;44.08887;95857.37;;;;
2020/05/18 08:10:47;;;;;;;8.849999;5.05;;;;;;;23.48;44.08887;95857.37;;;;
2020/05/18 08:11:47;;;;;;;8.849999;5.05;;;;;;;23.48;44.08887;95857.37;;;;
2020/05/18 08:12:47;;;;;;;8.849999;5.05;;;;;;;23.48;44.08887;95857.37;;;;
2020/05/18 08:13:48;;;;;;;8.849999;5.05;;;;;;;23.48;44.08887;95857.37;;;;
2020/05/18 08:14:48;;;;;;;4.1;3.7;;;;;;;23.65;43.71777;95876.92;;;;
2020/05/18 08:15:49;;;;;;;4.1;3.7;;;;;;;23.65;43.71777;95876.92;;;;
2020/05/18 08:16:49;;;;;;;4.1;3.7;;;;;;;23.65;43.71777;95876.92;;;;
2020/05/18 08:17:50;;;;;;;4.1;3.7;;;;;;;23.65;43.71777;95876.92;;;;
2020/05/18 08:18:50;;;;;;;4.1;3.7;;;;;;;23.65;43.71777;95876.92;;;;
2020/05/18 08:19:51;;;;;;;4.1;3.7;;;;;;;23.65;43.71777;95876.92;;;;
2020/05/18 08:20:51;;;;;;;4.1;3.7;;;;;;;23.65;43.71777;95876.92;;;;